Terminal Aerodrome Forecast
Issued by NWS Upton, NY

Home | Current Version | Previous Version | Text Only | Print | Product List | Glossary On
Versions: 1 2 3 4 5 6 7 8 9 10 11 12 13 14 15 16 17 18 19 20 21 22 23 24 25 26 27 28 29 30 31 32
000
FTUS41 KOKX 160500
TAFJFK
TAF
KJFK 160522Z 1606/1712 22005KT P6SM SCT040 OVC150
     FM161000 22005KT P6SM VCSH BKN040 OVC100
     FM161500 24007KT P6SM BKN060 BKN100
     FM162000 25008KT P6SM SCT060 SCT150
     FM170200 32007KT P6SM SCT250
     FM170500 36010KT P6SM SCT250=

USA.gov is the U.S. government's official web portal to all federal, state and local government web resources and services.